Time;durP1;ratioP1;P1;durP2;ratioP2;P2;SDS_P1;SDS_P2;PMS_P1;PMS_P2;Temp;Humidity;BMP_temperature;BMP_pressure;BME280_temperature;BME280_humidity;BME280_pressure;Samples;Min_cycle;Max_cycle;Signal;HPM_P1;HPM_P2
2022/04/22 00:01:15;;;;;;;19.25;8.68;;;10.70;99.90;;;;;;5036103;28;20088;-76
2022/04/22 00:03:41;;;;;;;15.00;8.63;;;10.70;99.90;;;;;;5037229;28;20072;-78
2022/04/22 00:06:07;;;;;;;14.00;8.40;;;10.70;99.90;;;;;;5054317;28;20453;-77
2022/04/22 00:08:33;;;;;;;12.68;8.10;;;10.60;99.90;;;;;;5038781;28;20044;-77
2022/04/22 00:13:43;;;;;;;12.67;7.30;;;10.50;99.90;;;;;;5039795;28;20410;-76
2022/04/22 00:16:09;;;;;;;18.77;9.50;;;10.50;99.90;;;;;;5058587;28;20120;-75
2022/04/22 00:18:36;;;;;;;16.40;9.55;;;10.50;99.90;;;;;;5058204;28;20036;-78
2022/04/22 00:21:02;;;;;;;12.55;9.13;;;10.50;99.90;;;;;;5024040;28;20106;-76
2022/04/22 00:23:28;;;;;;;15.05;8.88;;;10.50;99.90;;;;;;5058551;28;20347;-77
2022/04/22 00:25:54;;;;;;;17.35;9.80;;;10.50;99.90;;;;;;5058185;28;20051;-77
2022/04/22 00:28:20;;;;;;;14.38;8.90;;;10.40;99.90;;;;;;5041088;28;20056;-76
2022/04/22 00:30:47;;;;;;;15.70;8.60;;;10.40;99.90;;;;;;5046927;28;20052;-76
2022/04/22 00:33:16;;;;;;;14.70;9.40;;;10.30;99.90;;;;;;5056895;28;20048;-78
2022/04/22 00:35:41;;;;;;;15.10;8.88;;;10.40;99.90;;;;;;5057048;28;20049;-77
2022/04/22 00:38:07;;;;;;;14.80;8.57;;;10.30;99.90;;;;;;5057799;28;20052;-77
2022/04/22 00:40:33;;;;;;;14.02;10.07;;;10.30;99.90;;;;;;5058054;28;20112;-78
2022/04/22 00:42:59;;;;;;;15.60;9.73;;;10.30;99.90;;;;;;5057588;28;20033;-78
2022/04/22 00:45:24;;;;;;;14.43;9.40;;;10.30;99.90;;;;;;5057543;28;20045;-79
2022/04/22 00:47:50;;;;;;;19.23;10.23;;;10.20;99.90;;;;;;5056637;28;20427;-77
2022/04/22 00:50:17;;;;;;;14.70;9.00;;;10.20;99.90;;;;;;5040438;28;20486;-77
2022/04/22 00:52:43;;;;;;;19.10;9.85;;;10.20;99.90;;;;;;5022492;28;20084;-76
2022/04/22 00:55:09;;;;;;;17.65;9.60;;;10.20;99.90;;;;;;5057677;28;20080;-77
2022/04/22 00:57:35;;;;;;;14.18;9.27;;;10.20;99.90;;;;;;5056886;28;20048;-77
2022/04/22 01:00:03;;;;;;;15.23;9.40;;;10.20;99.90;;;;;;5056801;28;20451;-78
2022/04/22 01:02:28;;;;;;;15.32;9.35;;;10.10;99.90;;;;;;5040105;28;20442;-76
2022/04/22 01:10:23;;;;;;;16.90;9.25;;;10.10;99.90;;;;;;5057463;28;20374;-77
2022/04/22 01:12:48;;;;;;;17.33;9.63;;;10.00;99.90;;;;;;5057052;28;20128;-76
2022/04/22 01:15:14;;;;;;;17.13;9.95;;;10.00;99.90;;;;;;5057319;28;20037;-77
2022/04/22 01:17:41;;;;;;;12.50;9.13;;;9.90;99.90;;;;;;5057215;28;20080;-76
2022/04/22 01:20:07;;;;;;;13.18;9.25;;;9.90;99.90;;;;;;5056970;28;20045;-78
2022/04/22 01:22:32;;;;;;;18.17;9.20;;;9.90;99.90;;;;;;5055826;28;20452;-75
2022/04/22 01:25:00;;;;;;;17.17;9.40;;;9.80;99.90;;;;;;5054756;28;20041;-80
2022/04/22 01:27:29;;;;;;;14.30;9.15;;;9.80;99.90;;;;;;5055911;28;20044;-75
2022/04/22 01:29:56;;;;;;;13.75;9.35;;;9.80;99.90;;;;;;5055967;28;20444;-77
2022/04/22 01:32:22;;;;;;;13.57;9.32;;;9.80;99.90;;;;;;5039703;28;20445;-78
2022/04/22 01:34:48;;;;;;;14.35;10.30;;;9.70;99.90;;;;;;5056897;28;20124;-78
2022/04/22 01:37:13;;;;;;;11.70;9.48;;;9.70;99.90;;;;;;5039132;28;20110;-77
2022/04/22 01:39:39;;;;;;;16.10;9.88;;;9.70;99.90;;;;;;5022462;28;20087;-77
2022/04/22 01:42:06;;;;;;;22.58;10.02;;;9.70;99.90;;;;;;5039195;28;20045;-78
2022/04/22 01:44:33;;;;;;;18.77;10.20;;;9.60;99.90;;;;;;5039387;28;20041;-77
2022/04/22 01:47:00;;;;;;;15.55;9.88;;;9.60;99.90;;;;;;5039562;28;20072;-76
2022/04/22 01:49:25;;;;;;;21.10;10.30;;;9.60;99.90;;;;;;5039546;28;20049;-77
2022/04/22 01:51:53;;;;;;;15.00;10.05;;;9.60;99.90;;;;;;5038992;28;20068;-76
2022/04/22 01:54:19;;;;;;;14.30;9.70;;;9.50;99.90;;;;;;5056752;28;20037;-77
2022/04/22 01:56:44;;;;;;;13.63;9.73;;;9.50;99.90;;;;;;5056535;28;20056;-77
2022/04/22 01:59:10;;;;;;;16.88;10.25;;;9.40;99.90;;;;;;5056184;28;20059;-79
2022/04/22 02:01:35;;;;;;;17.10;9.77;;;9.50;99.90;;;;;;5056056;28;20047;-77
2022/04/22 02:04:01;;;;;;;12.88;10.13;;;9.50;99.90;;;;;;5056515;28;20158;-77
2022/04/22 02:06:28;;;;;;;17.48;10.82;;;9.40;99.90;;;;;;5056279;28;20045;-77
2022/04/22 02:08:53;;;;;;;15.43;10.13;;;9.40;99.90;;;;;;5021401;28;20048;-77
2022/04/22 02:11:19;;;;;;;17.20;10.73;;;9.40;99.90;;;;;;5038204;28;20439;-77
2022/04/22 02:13:45;;;;;;;17.60;10.00;;;9.40;99.90;;;;;;5039049;28;20045;-76
2022/04/22 02:16:12;;;;;;;18.65;11.13;;;9.40;99.90;;;;;;5038911;28;20041;-78
2022/04/22 02:18:39;;;;;;;18.05;11.10;;;9.40;99.90;;;;;;5055893;28;20119;-76
2022/04/22 02:21:06;;;;;;;20.88;10.50;;;9.30;99.90;;;;;;5055956;28;20037;-81
2022/04/22 02:23:32;;;;;;;20.13;10.80;;;9.30;99.90;;;;;;5038784;28;20048;-77
2022/04/22 02:25:58;;;;;;;12.43;9.75;;;9.30;99.90;;;;;;5055925;28;20045;-75
2022/04/22 02:28:34;;;;;;;17.50;10.07;;;9.30;99.90;;;;;;5055895;28;20455;-76
2022/04/22 02:31:10;;;;;;;13.35;10.25;;;9.30;99.90;;;;;;5046836;28;20128;-76
2022/04/22 02:33:40;;;;;;;16.35;10.45;;;9.20;99.90;;;;;;5055658;28;20040;-78
2022/04/22 02:36:07;;;;;;;15.45;9.93;;;9.20;99.90;;;;;;5054615;28;20051;-79
2022/04/22 02:38:33;;;;;;;22.20;10.15;;;9.20;99.90;;;;;;5054510;28;20052;-77
2022/04/22 02:46:48;;;;;;;15.45;8.68;;;9.10;99.90;;;;;;5032638;28;20073;-76
2022/04/22 02:49:13;;;;;;;13.38;9.43;;;9.10;99.90;;;;;;5005543;28;20153;-78
2022/04/22 02:51:39;;;;;;;16.13;9.43;;;9.10;99.90;;;;;;5023908;28;20483;-78
2022/04/22 02:54:05;;;;;;;20.73;10.27;;;9.10;99.90;;;;;;5035581;28;20317;-75
2022/04/22 02:56:31;;;;;;;13.65;9.00;;;9.10;99.90;;;;;;5034546;28;20573;-77
2022/04/22 02:58:57;;;;;;;19.88;9.73;;;9.10;99.90;;;;;;5035666;28;20143;-76
2022/04/22 03:01:22;;;;;;;12.38;7.82;;;9.10;99.90;;;;;;5040484;28;20148;-76
2022/04/22 03:03:48;;;;;;;12.65;8.15;;;9.10;99.90;;;;;;5055521;28;20355;-78
2022/04/22 03:06:14;;;;;;;12.95;9.02;;;9.00;99.90;;;;;;5055140;28;20040;-75
2022/04/22 03:08:40;;;;;;;15.88;9.05;;;9.00;99.90;;;;;;5038049;28;20037;-75
2022/04/22 03:11:05;;;;;;;13.45;8.52;;;9.00;99.90;;;;;;5050795;28;20048;-76
2022/04/22 03:13:31;;;;;;;15.00;8.85;;;9.00;99.90;;;;;;5034397;28;20038;-79
2022/04/22 03:15:58;;;;;;;15.18;8.57;;;8.90;99.90;;;;;;5034164;28;20037;-78
2022/04/22 03:18:23;;;;;;;13.32;8.43;;;8.90;99.90;;;;;;5051982;28;20073;-74
2022/04/22 03:20:49;;;;;;;12.90;8.43;;;8.90;99.90;;;;;;5055063;28;20080;-76
2022/04/22 03:23:15;;;;;;;12.65;8.15;;;8.80;99.90;;;;;;5054851;28;20116;-76
2022/04/22 03:25:41;;;;;;;14.90;8.18;;;8.80;99.90;;;;;;5054831;28;20098;-77
2022/04/22 03:28:07;;;;;;;12.27;8.07;;;8.80;99.90;;;;;;5053844;28;20055;-77
2022/04/22 03:30:34;;;;;;;16.73;8.60;;;8.80;99.90;;;;;;5053828;28;20048;-75
2022/04/22 03:33:01;;;;;;;11.10;7.40;;;8.80;99.90;;;;;;5049946;28;20132;-77
2022/04/22 03:35:27;;;;;;;13.63;8.35;;;8.70;99.90;;;;;;5034678;28;20041;-76
2022/04/22 03:37:53;;;;;;;12.82;7.70;;;8.70;99.90;;;;;;5034179;28;20037;-77
2022/04/22 03:40:19;;;;;;;11.35;8.02;;;8.70;99.90;;;;;;5034511;28;20044;-76
2022/04/22 03:42:44;;;;;;;11.57;7.72;;;8.70;99.90;;;;;;5034048;28;20034;-76
2022/04/22 03:45:11;;;;;;;12.18;7.63;;;8.70;99.90;;;;;;5033727;28;20041;-76
2022/04/22 03:47:37;;;;;;;12.27;8.68;;;8.60;99.90;;;;;;5051917;28;20526;-78
2022/04/22 03:50:03;;;;;;;13.82;7.90;;;8.60;99.90;;;;;;5057864;28;20127;-75
2022/04/22 03:52:29;;;;;;;14.18;8.57;;;8.60;99.90;;;;;;5057939;28;20444;-77
2022/04/22 03:54:54;;;;;;;13.20;8.07;;;8.60;99.90;;;;;;5057850;28;20052;-79
2022/04/22 04:00:04;;;;;;;13.43;8.00;;;8.50;99.90;;;;;;5057549;28;20103;-76
2022/04/22 04:02:30;;;;;;;12.48;7.68;;;8.50;99.90;;;;;;5057727;28;20097;-76
2022/04/22 04:04:56;;;;;;;12.70;7.47;;;8.50;99.90;;;;;;5058170;28;20049;-77
2022/04/22 04:07:21;;;;;;;12.15;7.68;;;8.50;99.90;;;;;;5074381;28;20041;-77
2022/04/22 04:17:59;;;;;;;14.70;8.07;;;8.40;99.90;;;;;;5058429;28;20344;-77
2022/04/22 04:23:14;;;;;;;14.75;8.13;;;8.40;99.90;;;;;;5057145;28;20049;-75
2022/04/22 04:25:45;;;;;;;15.65;7.53;;;8.30;99.90;;;;;;5058411;28;20033;-77
2022/04/22 04:28:11;;;;;;;13.52;7.13;;;8.40;99.90;;;;;;5058400;28;20056;-75
2022/04/22 04:30:38;;;;;;;13.77;7.40;;;8.40;99.90;;;;;;5058009;28;20059;-77
2022/04/22 04:33:05;;;;;;;11.80;7.65;;;8.30;99.90;;;;;;5040366;28;20347;-76
2022/04/22 04:35:31;;;;;;;12.85;7.78;;;8.30;99.90;;;;;;5058021;28;20099;-76
2022/04/22 04:37:56;;;;;;;16.55;7.47;;;8.30;99.90;;;;;;5058025;28;20428;-76
2022/04/22 04:40:22;;;;;;;11.43;7.13;;;8.20;99.90;;;;;;5058083;28;20107;-77
2022/04/22 04:42:47;;;;;;;13.95;7.70;;;8.30;99.90;;;;;;5040431;28;20439;-78
2022/04/22 04:45:13;;;;;;;13.07;7.57;;;8.30;99.90;;;;;;5039966;28;20128;-77
2022/04/22 04:47:43;;;;;;;10.93;7.57;;;8.30;99.90;;;;;;5040341;28;20083;-76
2022/04/22 04:50:10;;;;;;;12.85;7.28;;;8.30;99.90;;;;;;5023835;28;20033;-77
2022/04/22 04:52:40;;;;;;;14.48;8.35;;;8.30;99.90;;;;;;5026002;28;20049;-75
2022/04/22 04:55:07;;;;;;;8.38;6.10;;;8.30;99.90;;;;;;5020710;28;20120;-77
2022/04/22 04:57:33;;;;;;;10.90;7.43;;;8.30;99.90;;;;;;5004103;28;20061;-78
2022/04/22 04:59:59;;;;;;;10.00;6.38;;;8.20;99.90;;;;;;5020444;28;20045;-77
2022/04/22 05:02:25;;;;;;;10.30;6.93;;;8.30;99.90;;;;;;5056413;28;20454;-79
2022/04/22 05:04:50;;;;;;;9.35;6.32;;;8.30;99.90;;;;;;5040408;28;20120;-76
2022/04/22 05:07:16;;;;;;;13.55;6.40;;;8.30;99.90;;;;;;5039901;28;20041;-78
2022/04/22 05:09:41;;;;;;;10.70;5.80;;;8.30;99.90;;;;;;5057675;28;20053;-76
2022/04/22 05:12:10;;;;;;;8.48;5.97;;;8.30;99.90;;;;;;5040242;28;20057;-76
2022/04/22 05:14:36;;;;;;;12.50;6.20;;;8.30;99.90;;;;;;5039645;28;20142;-76
2022/04/22 05:17:02;;;;;;;8.23;5.90;;;8.30;99.90;;;;;;5056964;28;20032;-76
2022/04/22 05:19:27;;;;;;;9.57;6.85;;;8.30;99.90;;;;;;5039755;28;20044;-76
2022/04/22 05:21:55;;;;;;;8.63;5.90;;;8.30;99.90;;;;;;5057218;28;20473;-77
2022/04/22 05:24:21;;;;;;;8.57;5.50;;;8.30;99.90;;;;;;5057214;28;20037;-77
2022/04/22 05:26:46;;;;;;;8.80;5.30;;;8.40;99.90;;;;;;5039679;28;20411;-76
2022/04/22 05:34:40;;;;;;;10.17;6.10;;;8.30;99.90;;;;;;5056967;28;20060;-77
2022/04/22 05:37:06;;;;;;;10.98;5.60;;;8.40;99.90;;;;;;5056252;28;20059;-76
2022/04/22 05:39:32;;;;;;;9.85;6.05;;;8.40;99.90;;;;;;5055023;28;20459;-78
2022/04/22 05:42:00;;;;;;;9.38;6.20;;;8.50;99.90;;;;;;5056534;28;20045;-77
2022/04/22 05:44:26;;;;;;;8.18;4.90;;;8.50;99.90;;;;;;5056763;28;20124;-77
2022/04/22 05:46:51;;;;;;;10.60;5.35;;;8.50;99.90;;;;;;5055725;28;20128;-76
2022/04/22 05:49:18;;;;;;;10.23;5.43;;;8.60;99.90;;;;;;5051909;28;20060;-78
2022/04/22 05:51:43;;;;;;;9.93;5.00;;;8.50;99.90;;;;;;5052401;28;20459;-79
2022/04/22 05:54:09;;;;;;;8.63;5.43;;;8.60;99.90;;;;;;5036162;28;20073;-76
2022/04/22 05:56:35;;;;;;;8.00;5.30;;;8.60;99.90;;;;;;5036467;28;20053;-76
2022/04/22 05:59:02;;;;;;;6.20;4.55;;;8.70;99.90;;;;;;5018676;28;20049;-75
2022/04/22 06:01:28;;;;;;;9.35;5.40;;;8.70;99.90;;;;;;5039724;28;20029;-76
2022/04/22 06:03:53;;;;;;;8.38;5.00;;;8.70;99.90;;;;;;5056146;28;20040;-77
2022/04/22 06:06:19;;;;;;;8.88;4.82;;;8.80;99.90;;;;;;5056158;28;20094;-77
2022/04/22 06:11:29;;;;;;;6.37;4.47;;;8.90;99.90;;;;;;5054536;28;20063;-77
2022/04/22 06:13:55;;;;;;;9.55;5.25;;;8.90;99.90;;;;;;5055300;28;20044;-75
2022/04/22 06:16:22;;;;;;;9.27;5.63;;;9.00;99.90;;;;;;5038157;28;20036;-76
2022/04/22 06:18:47;;;;;;;10.48;4.63;;;9.00;99.90;;;;;;5056038;28;20039;-76
2022/04/22 06:21:15;;;;;;;8.40;5.07;;;9.10;99.90;;;;;;5056113;28;20045;-74
2022/04/22 06:24:10;;;;;;;;;;;;;;;;;;;;;
2022/04/22 06:26:54;;;;;;;7.60;4.88;;;9.20;99.90;;;;;;5055333;28;20036;-76
2022/04/22 06:29:20;;;;;;;8.43;5.10;;;9.20;99.90;;;;;;5054773;28;20052;-73
2022/04/22 06:31:46;;;;;;;6.57;4.32;;;9.30;99.90;;;;;;5055630;28;20053;-73
2022/04/22 06:34:11;;;;;;;8.07;3.92;;;9.30;99.90;;;;;;5055519;28;20047;-75
2022/04/22 06:36:37;;;;;;;7.63;4.45;;;9.40;99.90;;;;;;5052393;28;20076;-75
2022/04/22 06:39:03;;;;;;;10.00;4.82;;;9.50;99.90;;;;;;5055408;28;20435;-78
2022/04/22 06:47:31;;;;;;;9.90;4.35;;;9.70;99.90;;;;;;5054755;28;20462;-79
2022/04/22 06:49:56;;;;;;;9.60;5.35;;;9.80;99.90;;;;;;5037655;28;20347;-76
2022/04/22 06:53:30;;;;;;;8.15;4.45;;;9.90;99.90;;;;;;5037787;28;20049;-76
2022/04/22 06:56:00;;;;;;;11.55;5.07;;;10.10;99.90;;;;;;4974536;28;20057;-77
2022/04/22 06:58:26;;;;;;;9.50;4.00;;;10.10;99.90;;;;;;4974543;28;20074;-72
2022/04/22 07:00:52;;;;;;;9.95;4.13;;;10.30;99.90;;;;;;5030559;28;20091;-74
2022/04/22 07:03:18;;;;;;;6.18;4.35;;;10.30;99.90;;;;;;5037019;28;20064;-74
2022/04/22 07:05:47;;;;;;;6.43;3.95;;;10.40;99.90;;;;;;5055153;28;20082;-72
2022/04/22 07:08:14;;;;;;;6.35;3.70;;;10.50;99.90;;;;;;5051933;28;20461;-74
2022/04/22 07:10:43;;;;;;;6.28;3.97;;;10.60;99.90;;;;;;5074396;28;20389;-74
2022/04/22 07:13:10;;;;;;;6.28;4.35;;;10.70;99.90;;;;;;5074768;28;20032;-73
2022/04/22 07:15:38;;;;;;;7.13;4.35;;;10.80;99.90;;;;;;5075281;28;20110;-73
2022/04/22 07:18:04;;;;;;;5.45;3.80;;;10.90;99.90;;;;;;5065069;28;20067;-72
2022/04/22 07:20:30;;;;;;;9.48;4.63;;;11.00;99.90;;;;;;5054897;28;20455;-73
2022/04/22 07:22:59;;;;;;;9.63;3.63;;;11.00;99.90;;;;;;5050833;28;20044;-74
2022/04/22 07:25:25;;;;;;;7.38;4.13;;;11.10;99.90;;;;;;5054850;28;20358;-73
2022/04/22 07:27:51;;;;;;;5.60;3.47;;;11.20;99.90;;;;;;5054707;28;20037;-72
2022/04/22 07:30:23;;;;;;;5.85;4.00;;;11.30;99.90;;;;;;5054518;28;20052;-77
2022/04/22 07:32:50;;;;;;;6.68;3.70;;;11.30;99.90;;;;;;5036784;28;20123;-73
2022/04/22 07:35:17;;;;;;;5.20;3.78;;;11.40;99.90;;;;;;5054966;28;20032;-72
2022/04/22 07:37:45;;;;;;;6.15;3.70;;;11.40;99.90;;;;;;5054198;28;20112;-72
2022/04/22 07:40:11;;;;;;;7.40;3.88;;;11.50;99.90;;;;;;5036709;28;20037;-73
2022/04/22 07:42:39;;;;;;;4.88;3.45;;;11.50;99.90;;;;;;5050994;28;20045;-74
2022/04/22 07:47:50;;;;;;;5.93;4.07;;;11.70;99.90;;;;;;5054474;28;20091;-73
2022/04/22 07:50:20;;;;;;;5.40;3.88;;;11.70;99.90;;;;;;5033933;28;20037;-71
2022/04/22 07:52:47;;;;;;;5.28;3.60;;;11.80;99.90;;;;;;5034166;28;20083;-71
2022/04/22 07:55:14;;;;;;;4.65;3.85;;;11.80;99.90;;;;;;5053672;28;20055;-72
2022/04/22 07:57:40;;;;;;;6.72;3.60;;;11.90;99.90;;;;;;5054383;28;20037;-73
2022/04/22 08:00:08;;;;;;;6.20;4.47;;;11.90;99.90;;;;;;5036938;28;20109;-72
2022/04/22 08:02:34;;;;;;;6.97;3.78;;;12.00;99.90;;;;;;5020600;28;20052;-73
2022/04/22 08:05:00;;;;;;;10.02;4.03;;;12.00;99.90;;;;;;5054759;28;20033;-73
2022/04/22 08:07:26;;;;;;;9.02;3.53;;;12.10;99.90;;;;;;5054401;28;20334;-73
2022/04/22 08:09:52;;;;;;;8.80;4.15;;;12.10;99.90;;;;;;5054454;28;20053;-74
2022/04/22 08:12:21;;;;;;;5.50;3.83;;;12.10;99.90;;;;;;5054728;28;20037;-73
2022/04/22 08:14:47;;;;;;;8.30;4.03;;;12.10;99.90;;;;;;5054682;28;20051;-74
2022/04/22 08:17:12;;;;;;;8.45;4.00;;;12.20;99.90;;;;;;5054725;28;20402;-73
2022/04/22 08:19:39;;;;;;;7.57;4.05;;;12.20;99.90;;;;;;5054458;28;20132;-73
2022/04/22 08:22:04;;;;;;;6.78;3.90;;;12.20;99.90;;;;;;5053862;28;20044;-74
2022/04/22 08:24:30;;;;;;;7.70;4.22;;;12.30;99.90;;;;;;5054081;28;20041;-74
2022/04/22 08:26:57;;;;;;;7.20;4.10;;;12.40;99.90;;;;;;5053817;28;20437;-70
2022/04/22 08:29:23;;;;;;;6.22;3.97;;;12.40;99.90;;;;;;5054226;28;20132;-73
2022/04/22 08:31:52;;;;;;;6.68;3.90;;;12.40;99.90;;;;;;5054123;28;20084;-74
2022/04/22 08:34:18;;;;;;;6.97;4.15;;;12.40;99.90;;;;;;5055723;28;20041;-73
2022/04/22 08:36:45;;;;;;;6.32;3.67;;;12.40;99.90;;;;;;5040032;28;20405;-72
2022/04/22 08:39:11;;;;;;;6.97;3.65;;;12.50;99.90;;;;;;5040681;28;20045;-73
2022/04/22 08:41:37;;;;;;;10.50;4.68;;;12.50;99.90;;;;;;5057978;28;20346;-74
2022/04/22 08:44:05;;;;;;;9.75;4.50;;;12.50;99.90;;;;;;5040536;28;20414;-73
2022/04/22 08:52:02;;;;;;;8.40;4.27;;;12.60;99.90;;;;;;5057548;28;20065;-73
2022/04/22 08:54:29;;;;;;;13.55;4.63;;;12.60;99.90;;;;;;5040202;28;20045;-72
2022/04/22 08:56:54;;;;;;;9.55;4.30;;;12.70;99.90;;;;;;5057178;28;20497;-70
2022/04/22 08:59:25;;;;;;;9.88;4.95;;;12.70;99.90;;;;;;5039835;28;20127;-74
2022/04/22 09:01:51;;;;;;;6.22;4.03;;;12.80;99.90;;;;;;5039710;28;20049;-74
2022/04/22 09:04:17;;;;;;;6.90;4.47;;;12.70;99.90;;;;;;5057143;28;20044;-73
2022/04/22 09:06:45;;;;;;;9.52;4.07;;;12.70;99.90;;;;;;5057226;28;20463;-74
2022/04/22 09:09:13;;;;;;;8.80;4.57;;;12.70;99.90;;;;;;5057236;28;20048;-75
2022/04/22 09:11:45;;;;;;;8.02;4.20;;;12.70;99.90;;;;;;5059310;28;20041;-73
2022/04/22 09:14:14;;;;;;;8.18;4.40;;;12.80;99.90;;;;;;5044316;28;20041;-74
2022/04/22 09:16:41;;;;;;;8.27;4.63;;;12.80;99.90;;;;;;5060543;28;20186;-74
2022/04/22 09:19:06;;;;;;;9.40;3.85;;;12.90;99.90;;;;;;5040373;28;20083;-73
2022/04/22 09:21:32;;;;;;;9.68;4.28;;;12.90;99.90;;;;;;5023783;28;20126;-73
2022/04/22 09:24:11;;;;;;;6.95;4.15;;;12.90;99.90;;;;;;5038514;28;20041;-74
2022/04/22 09:26:37;;;;;;;9.63;4.10;;;13.00;99.90;;;;;;5039922;28;20091;-73
2022/04/22 09:29:05;;;;;;;8.38;4.65;;;12.90;99.90;;;;;;5041203;28;20045;-74
2022/04/22 09:31:47;;;;;;;8.10;4.13;;;12.90;99.90;;;;;;5039765;28;20459;-74
2022/04/22 09:34:13;;;;;;;8.40;4.60;;;12.90;99.90;;;;;;5053783;28;20041;-73
2022/04/22 09:45:04;;;;;;;11.00;4.93;;;13.00;99.90;;;;;;5056176;28;20347;-74
2022/04/22 09:47:32;;;;;;;7.35;4.75;;;13.10;99.90;;;;;;5056587;28;20336;-74
2022/04/22 09:49:58;;;;;;;8.40;4.82;;;13.10;99.90;;;;;;5056312;28;20084;-74
2022/04/22 09:52:25;;;;;;;9.75;4.38;;;13.10;99.90;;;;;;5056397;28;20130;-73
2022/04/22 09:54:56;;;;;;;7.38;4.72;;;13.10;99.90;;;;;;5056113;28;20037;-75
2022/04/22 09:57:22;;;;;;;7.55;4.53;;;13.10;99.90;;;;;;5056271;28;20041;-75
2022/04/22 09:59:47;;;;;;;9.40;4.90;;;13.20;99.90;;;;;;5056412;28;20052;-73
2022/04/22 10:02:23;;;;;;;7.57;4.47;;;13.20;99.90;;;;;;5038402;28;20350;-74
2022/04/22 10:04:50;;;;;;;8.27;4.60;;;13.20;99.90;;;;;;5056165;28;20033;-72
2022/04/22 10:07:17;;;;;;;8.00;5.30;;;13.30;99.90;;;;;;5056249;28;20208;-74
2022/04/22 10:09:45;;;;;;;11.15;5.55;;;13.30;99.90;;;;;;5056563;28;20085;-73
2022/04/22 10:12:14;;;;;;;9.07;4.78;;;13.30;99.90;;;;;;5056024;28;20041;-71
2022/04/22 10:14:42;;;;;;;10.25;4.40;;;13.30;99.90;;;;;;5056154;28;20049;-72
2022/04/22 10:17:09;;;;;;;9.02;4.68;;;13.30;99.90;;;;;;5056043;28;20041;-72
2022/04/22 10:19:35;;;;;;;11.00;5.00;;;13.30;99.90;;;;;;5055780;28;20103;-72
2022/04/22 10:22:02;;;;;;;9.50;4.47;;;13.30;99.90;;;;;;5055964;28;20443;-72
2022/04/22 10:24:31;;;;;;;12.07;6.18;;;13.30;99.90;;;;;;5054975;28;20041;-73
2022/04/22 10:26:58;;;;;;;10.23;4.88;;;13.40;99.90;;;;;;5055777;28;20041;-71
2022/04/22 10:29:24;;;;;;;7.03;4.57;;;13.30;99.90;;;;;;5055257;28;20080;-72
2022/04/22 10:31:50;;;;;;;15.85;5.30;;;13.30;99.90;;;;;;5053501;28;20053;-74
2022/04/22 10:34:16;;;;;;;8.85;4.70;;;13.40;99.90;;;;;;5055838;28;20135;-75
2022/04/22 10:36:43;;;;;;;10.65;4.75;;;13.50;99.90;;;;;;5055911;28;20124;-75
2022/04/22 10:39:09;;;;;;;12.88;4.72;;;13.50;99.90;;;;;;5054501;28;20041;-72
2022/04/22 10:41:46;;;;;;;7.85;4.65;;;13.50;99.90;;;;;;5054797;28;20052;-72
2022/04/22 10:47:13;;;;;;;10.75;5.28;;;13.50;99.90;;;;;;5054903;28;20040;-72
2022/04/22 10:49:42;;;;;;;7.15;4.88;;;13.60;99.90;;;;;;5066336;28;20094;-72
2022/04/22 10:52:17;;;;;;;10.57;4.90;;;13.50;99.90;;;;;;5035658;28;20073;-72
2022/04/22 10:54:52;;;;;;;8.80;5.13;;;13.60;99.90;;;;;;5035385;28;20053;-73
2022/04/22 10:57:39;;;;;;;13.98;5.50;;;13.60;99.90;;;;;;5034711;28;20049;-73
2022/04/22 11:00:08;;;;;;;13.20;5.28;;;13.70;99.90;;;;;;5053763;28;20059;-70
2022/04/22 11:02:41;;;;;;;13.10;5.82;;;13.70;99.90;;;;;;5054933;28;20076;-71
2022/04/22 11:05:19;;;;;;;12.20;4.90;;;13.80;99.90;;;;;;5035329;28;20041;-71
2022/04/22 11:07:50;;;;;;;8.98;5.22;;;13.70;99.90;;;;;;5035278;28;20347;-71
2022/04/22 11:10:48;;;;;;;11.27;5.28;;;13.80;99.90;;;;;;5038989;28;20084;-73
2022/04/22 11:13:33;;;;;;;11.52;5.40;;;13.90;99.90;;;;;;5054462;28;20052;-73
2022/04/22 11:16:15;;;;;;;11.15;5.50;;;14.00;99.90;;;;;;5051005;28;20443;-74
2022/04/22 11:18:45;;;;;;;14.82;6.07;;;14.00;99.90;;;;;;5049086;28;20037;-75
2022/04/22 11:21:15;;;;;;;13.20;5.65;;;14.00;99.90;;;;;;5053704;28;20056;-74
2022/04/22 11:23:44;;;;;;;9.10;5.90;;;14.00;99.90;;;;;;5054455;28;20090;-74
2022/04/22 11:26:13;;;;;;;8.38;5.53;;;14.10;99.90;;;;;;5054723;28;20037;-74
2022/04/22 11:28:40;;;;;;;12.45;6.43;;;14.00;99.90;;;;;;5062585;28;20033;-73
2022/04/22 11:31:08;;;;;;;11.35;6.13;;;14.20;99.90;;;;;;5034684;28;20114;-73
2022/04/22 11:33:53;;;;;;;10.82;5.68;;;14.30;99.90;;;;;;5031965;28;20038;-73
2022/04/22 11:36:21;;;;;;;11.65;6.63;;;14.30;99.90;;;;;;5033951;28;20030;-73
2022/04/22 11:38:48;;;;;;;10.25;5.80;;;14.30;99.90;;;;;;5049383;28;20068;-73
2022/04/22 11:41:16;;;;;;;9.35;6.53;;;14.40;99.90;;;;;;5051606;28;20124;-73
2022/04/22 11:43:41;;;;;;;15.70;6.13;;;14.40;99.90;;;;;;5054008;28;20037;-74
2022/04/22 11:46:08;;;;;;;12.82;6.00;;;14.30;99.90;;;;;;5054910;28;20033;-71
2022/04/22 11:48:33;;;;;;;16.20;6.82;;;14.40;99.90;;;;;;5054640;28;20454;-72
2022/04/22 11:51:00;;;;;;;10.77;5.85;;;14.50;99.90;;;;;;5185792;22;20054;-70
2022/04/22 11:53:26;;;;;;;10.20;5.93;;;14.60;99.90;;;;;;4998325;28;20184;-69
2022/04/22 11:55:52;;;;;;;14.38;6.70;;;14.70;99.90;;;;;;5009917;28;20111;-70
2022/04/22 11:58:27;;;;;;;18.40;6.30;;;14.80;99.90;;;;;;5014677;28;20058;-68
2022/04/22 12:06:23;;;;;;;19.10;6.72;;;15.10;99.90;;;;;;4997672;28;20053;-73
2022/04/22 12:09:02;;;;;;;15.48;6.88;;;15.10;99.90;;;;;;4999981;28;20090;-71
2022/04/22 12:11:29;;;;;;;12.35;6.32;;;15.20;99.90;;;;;;4983689;28;20053;-71
2022/04/22 12:13:56;;;;;;;13.95;7.13;;;15.30;99.90;;;;;;5018657;28;20049;-71
2022/04/22 12:16:24;;;;;;;11.13;6.85;;;15.40;99.90;;;;;;5014951;28;20458;-70
2022/04/22 12:18:51;;;;;;;10.93;6.10;;;15.50;99.90;;;;;;5018139;28;20061;-70
2022/04/22 12:21:18;;;;;;;10.43;6.15;;;15.50;99.90;;;;;;5010942;28;20045;-72
2022/04/22 12:23:46;;;;;;;10.20;6.28;;;15.60;99.90;;;;;;5001207;28;20054;-71
2022/04/22 12:26:17;;;;;;;12.23;6.72;;;15.60;99.90;;;;;;5014936;28;20046;-70
2022/04/22 12:29:18;;;;;;;9.27;6.13;;;15.70;99.90;;;;;;5018284;28;20076;-71
2022/04/22 12:31:49;;;;;;;13.77;6.90;;;15.80;99.90;;;;;;5010446;28;20042;-73
2022/04/22 12:34:26;;;;;;;11.98;6.80;;;15.80;99.90;;;;;;4989985;28;20091;-74
2022/04/22 12:36:52;;;;;;;54.83;10.35;;;16.00;99.90;;;;;;5018280;28;20187;-71
2022/04/22 12:39:38;;;;;;;27.77;7.57;;;16.10;99.90;;;;;;5018297;28;20141;-73
2022/04/22 12:42:24;;;;;;;10.82;6.13;;;16.30;99.90;;;;;;5018040;28;20116;-71
2022/04/22 12:53:41;;;;;;;13.27;7.18;;;17.60;99.90;;;;;;5017969;28;20054;-71
2022/04/22 12:56:09;;;;;;;14.93;7.60;;;18.00;99.90;;;;;;5017609;28;20045;-72
2022/04/22 12:58:52;;;;;;;14.10;5.95;;;18.50;99.90;;;;;;5017769;28;20064;-71
2022/04/22 13:01:29;;;;;;;14.98;6.65;;;18.90;99.90;;;;;;5016651;28;20049;-71
2022/04/22 13:03:57;;;;;;;12.85;7.82;;;19.30;99.90;;;;;;5006350;28;20483;-70
2022/04/22 13:06:35;;;;;;;12.20;7.15;;;19.50;99.90;;;;;;5001249;28;20109;-68
2022/04/22 13:09:00;;;;;;;11.50;6.40;;;20.00;99.90;;;;;;5012603;28;20439;-71
2022/04/22 13:11:26;;;;;;;9.38;6.97;;;20.50;99.90;;;;;;5000051;28;20056;-71
2022/04/22 13:13:51;;;;;;;15.00;7.25;;;20.90;99.90;;;;;;5017717;28;20419;-70
2022/04/22 13:16:17;;;;;;;10.55;6.93;;;21.30;99.90;;;;;;5017386;28;20557;-68
2022/04/22 13:18:42;;;;;;;13.07;7.07;;;21.60;99.90;;;;;;5003452;28;20042;-69
2022/04/22 13:21:08;;;;;;;9.63;6.63;;;21.80;99.90;;;;;;5013076;28;20096;-69
2022/04/22 13:23:33;;;;;;;9.13;6.97;;;22.30;99.90;;;;;;5016733;28;20054;-70
2022/04/22 13:25:59;;;;;;;12.15;6.50;;;22.50;99.90;;;;;;5016985;28;20030;-72
2022/04/22 13:28:25;;;;;;;10.15;7.13;;;22.80;99.90;;;;;;5016961;28;20038;-69
2022/04/22 13:30:50;;;;;;;12.50;7.28;;;23.40;99.90;;;;;;5011912;28;20046;-69
2022/04/22 13:33:16;;;;;;;11.20;6.60;;;23.70;99.90;;;;;;5012842;28;20115;-68
2022/04/22 13:35:41;;;;;;;14.68;7.57;;;24.00;99.70;;;;;;5016610;28;20042;-71
2022/04/22 13:38:07;;;;;;;8.98;6.32;;;24.50;99.00;;;;;;5013329;28;20076;-71
2022/04/22 13:40:33;;;;;;;8.40;6.53;;;24.60;98.40;;;;;;5016722;28;20457;-67
2022/04/22 13:42:58;;;;;;;9.13;7.03;;;25.00;96.90;;;;;;4999164;28;20140;-68
2022/04/22 13:53:35;;;;;;;9.63;6.35;;;25.60;94.20;;;;;;5016464;28;20015;-70
2022/04/22 13:56:01;;;;;;;11.43;7.10;;;26.20;95.50;;;;;;5016582;28;20117;-72
2022/04/22 13:58:27;;;;;;;10.20;7.00;;;26.20;93.70;;;;;;5016118;28;20089;-69
2022/04/22 14:00:53;;;;;;;14.27;6.38;;;26.60;92.80;;;;;;5016277;28;20042;-71
2022/04/22 14:03:19;;;;;;;12.27;6.90;;;26.70;92.20;;;;;;5016367;28;20328;-73
2022/04/22 14:05:45;;;;;;;12.80;7.35;;;27.10;92.00;;;;;;4999240;28;20065;-71
2022/04/22 14:08:11;;;;;;;9.40;6.45;;;27.70;91.50;;;;;;5016660;28;20096;-72
2022/04/22 14:10:37;;;;;;;9.30;6.55;;;27.80;90.70;;;;;;5009079;28;20046;-71
2022/04/22 14:13:03;;;;;;;12.93;6.88;;;27.80;90.00;;;;;;4999392;28;20107;-71